createdAt,value
2018-11-26T00:00:49.070Z,3.48
2018-11-26T00:01:48.021Z,3.45
2018-11-26T00:03:59.126Z,3.42
2018-11-26T00:04:59.053Z,3.37
2018-11-26T00:05:59.065Z,3.37
2018-11-26T00:06:59.064Z,3.40
2018-11-26T00:07:59.055Z,3.31
2018-11-26T00:08:59.383Z,3.29
2018-11-26T00:09:58.981Z,3.40
2018-11-26T00:10:59.063Z,3.32
2018-11-26T00:11:59.066Z,3.29
2018-11-26T00:12:59.023Z,3.31
2018-11-26T00:13:59.218Z,3.32
2018-11-26T00:14:59.100Z,3.28
2018-11-26T00:15:59.101Z,3.25
2018-11-26T00:16:59.098Z,3.23
2018-11-26T00:19:11.163Z,3.13
2018-11-26T00:20:11.107Z,3.14
2018-11-26T00:21:11.100Z,3.10
2018-11-26T00:22:11.976Z,3.13
2018-11-26T00:23:11.073Z,3.05
2018-11-26T00:24:11.476Z,3.08
2018-11-26T00:25:11.084Z,3.01
2018-11-26T00:26:11.083Z,3.00
2018-11-26T00:27:11.097Z,2.98
2018-11-26T00:28:11.098Z,2.93
2018-11-26T00:29:11.008Z,2.89
2018-11-26T00:30:11.122Z,2.87
2018-11-26T00:31:11.095Z,3.00
2018-11-26T00:32:11.033Z,2.83
2018-11-26T00:34:22.142Z,2.89
2018-11-26T00:35:22.728Z,2.87
2018-11-26T00:36:22.030Z,2.82
2018-11-26T00:37:22.924Z,2.80
2018-11-26T00:38:22.091Z,2.83
2018-11-26T00:39:22.149Z,2.83
2018-11-26T00:40:22.101Z,2.82
2018-11-26T00:41:22.205Z,2.71
2018-11-26T00:42:22.054Z,2.72
2018-11-26T00:43:21.965Z,2.65
2018-11-26T00:44:21.886Z,2.68
2018-11-26T00:45:22.077Z,2.65
2018-11-26T00:46:22.140Z,2.62
2018-11-26T00:47:21.889Z,2.57
2018-11-26T00:49:35.155Z,2.56
2018-11-26T00:50:34.548Z,2.53
2018-11-26T00:51:34.410Z,2.56
2018-11-26T00:52:34.624Z,2.54
2018-11-26T00:53:35.116Z,2.53
2018-11-26T00:54:34.457Z,2.53
2018-11-26T00:55:34.954Z,2.43
2018-11-26T00:56:34.549Z,2.46
2018-11-26T00:57:34.471Z,2.43
2018-11-26T00:58:34.278Z,2.35
2018-11-26T00:59:34.573Z,2.39
2018-11-26T01:00:35.124Z,2.38
2018-11-26T01:01:34.388Z,2.42
2018-11-26T01:02:34.242Z,2.36
2018-11-26T01:04:48.164Z,2.32
2018-11-26T01:05:46.607Z,2.29
2018-11-26T01:06:46.151Z,2.33
2018-11-26T01:07:46.097Z,2.32
2018-11-26T01:08:46.009Z,2.18
2018-11-26T01:09:46.130Z,2.26
2018-11-26T01:10:46.165Z,2.24
2018-11-26T01:11:46.047Z,2.24
2018-11-26T01:12:46.160Z,2.22
2018-11-26T01:13:46.170Z,2.20
2018-11-26T01:14:46.056Z,2.26
2018-11-26T01:15:45.964Z,2.15
2018-11-26T01:16:46.179Z,2.26
2018-11-26T01:17:46.093Z,2.24
2018-11-26T01:18:45.980Z,2.28
2018-11-26T01:21:10.135Z,2.22
2018-11-26T01:22:08.349Z,2.28
2018-11-26T01:23:08.282Z,2.22
2018-11-26T01:24:08.969Z,2.15
2018-11-26T01:25:08.443Z,2.15
2018-11-26T01:26:08.240Z,2.14
2018-11-26T01:27:08.227Z,2.17
2018-11-26T01:28:08.770Z,2.18
2018-11-26T01:29:08.372Z,2.17
2018-11-26T01:30:08.278Z,2.08
2018-11-26T01:31:08.816Z,2.04
2018-11-26T01:32:08.171Z,1.95
2018-11-26T01:33:08.182Z,1.95
2018-11-26T01:35:20.153Z,1.95
2018-11-26T01:36:19.230Z,1.91
2018-11-26T01:37:19.232Z,2.00
2018-11-26T01:38:19.493Z,1.85
2018-11-26T01:39:20.110Z,1.89
2018-11-26T01:40:19.203Z,1.81
2018-11-26T01:41:20.143Z,1.87
2018-11-26T01:42:19.178Z,1.84
2018-11-26T01:43:19.162Z,1.77
2018-11-26T01:44:19.160Z,1.77
2018-11-26T01:45:19.166Z,1.84
2018-11-26T01:46:19.188Z,1.71
2018-11-26T01:47:20.179Z,1.78
2018-11-26T01:48:19.194Z,1.80
2018-11-26T01:49:19.176Z,1.78
2018-11-26T01:51:31.257Z,1.71
2018-11-26T01:52:31.115Z,1.73
2018-11-26T01:53:30.304Z,1.74
2018-11-26T01:54:30.589Z,1.70
2018-11-26T01:55:30.480Z,1.71
2018-11-26T01:56:30.262Z,1.73
2018-11-26T01:57:30.598Z,1.71
2018-11-26T01:58:30.830Z,1.68
2018-11-26T01:59:30.235Z,1.70
2018-11-26T02:00:30.317Z,1.70
2018-11-26T02:01:30.529Z,1.70
2018-11-26T02:02:30.199Z,1.67
2018-11-26T02:03:30.197Z,1.70
2018-11-26T02:05:42.353Z,1.77
2018-11-26T02:06:42.224Z,1.87
2018-11-26T02:07:42.191Z,1.85
2018-11-26T02:08:42.193Z,2.02
2018-11-26T02:09:42.204Z,1.95
2018-11-26T02:10:42.870Z,2.08
2018-11-26T02:11:42.168Z,2.04
2018-11-26T02:12:42.190Z,2.04
2018-11-26T02:13:42.187Z,2.06
2018-11-26T02:14:42.194Z,2.15
2018-11-26T02:15:42.132Z,2.22
2018-11-26T02:16:42.227Z,2.20
2018-11-26T02:17:42.195Z,2.17
2018-11-26T02:18:42.201Z,2.17
2018-11-26T02:20:53.252Z,2.22
2018-11-26T02:21:53.204Z,2.26
2018-11-26T02:22:53.108Z,2.20
2018-11-26T02:23:53.238Z,2.15
2018-11-26T02:24:53.204Z,2.18
2018-11-26T02:25:53.129Z,2.17
2018-11-26T02:26:53.245Z,2.14
2018-11-26T02:27:53.204Z,2.20
2018-11-26T02:28:53.147Z,2.18
2018-11-26T02:29:53.061Z,2.18
2018-11-26T02:30:52.965Z,2.25
2018-11-26T02:31:53.181Z,2.29
2018-11-26T02:32:53.370Z,2.29
2018-11-26T02:33:52.988Z,2.33
2018-11-26T02:34:53.198Z,2.36
2018-11-26T02:37:04.336Z,2.33
2018-11-26T02:38:04.222Z,2.26
2018-11-26T02:39:04.207Z,2.36
2018-11-26T02:40:04.218Z,2.35
2018-11-26T02:41:04.605Z,2.17
2018-11-26T02:42:04.201Z,2.29
2018-11-26T02:43:04.105Z,2.38
2018-11-26T02:44:04.221Z,2.28
2018-11-26T02:45:04.221Z,2.33
2018-11-26T02:46:04.236Z,2.29
2018-11-26T02:47:04.252Z,2.31
2018-11-26T02:48:04.570Z,2.33
2018-11-26T02:49:04.157Z,2.33
2018-11-26T02:50:04.065Z,2.29
2018-11-26T02:52:16.256Z,2.26
2018-11-26T02:53:15.747Z,2.28
2018-11-26T02:54:15.685Z,2.18
2018-11-26T02:55:15.568Z,2.28
2018-11-26T02:56:15.469Z,2.25
2018-11-26T02:57:15.677Z,2.29
2018-11-26T02:58:15.886Z,2.31
2018-11-26T02:59:15.438Z,2.22
2018-11-26T03:00:15.750Z,2.33
2018-11-26T03:01:15.606Z,2.29
2018-11-26T03:02:15.556Z,2.31
2018-11-26T03:03:16.043Z,2.36
2018-11-26T03:04:16.549Z,2.28
2018-11-26T03:05:15.451Z,2.31
2018-11-26T03:07:27.952Z,2.13
2018-11-26T03:08:27.386Z,2.17
2018-11-26T03:09:29.242Z,2.15
2018-11-26T03:10:27.649Z,2.14
2018-11-26T03:11:27.558Z,2.18
2018-11-26T03:12:27.345Z,2.20
2018-11-26T03:13:27.342Z,2.22
2018-11-26T03:14:27.582Z,2.14
2018-11-26T03:15:27.391Z,2.20
2018-11-26T03:16:27.335Z,2.11
2018-11-26T03:17:27.290Z,2.18
2018-11-26T03:18:27.306Z,2.20
2018-11-26T03:19:27.722Z,2.25
2018-11-26T03:20:27.259Z,2.18
2018-11-26T03:22:38.267Z,2.26
2018-11-26T03:23:36.871Z,2.20
2018-11-26T03:24:36.765Z,2.22
2018-11-26T03:25:36.683Z,2.20
2018-11-26T03:26:36.576Z,2.24
2018-11-26T03:27:36.794Z,2.15
2018-11-26T03:28:36.998Z,2.18
2018-11-26T03:29:36.598Z,2.15
2018-11-26T03:30:36.817Z,2.17
2018-11-26T03:31:37.047Z,2.20
2018-11-26T03:32:36.636Z,2.17
2018-11-26T03:33:36.501Z,2.26
2018-11-26T03:34:37.061Z,2.17
2018-11-26T03:35:36.650Z,2.20
2018-11-26T03:37:58.297Z,2.24
2018-11-26T03:38:57.863Z,2.22
2018-11-26T03:39:57.785Z,2.26
2018-11-26T03:40:58.167Z,2.17
2018-11-26T03:41:58.301Z,2.25
2018-11-26T03:42:58.102Z,2.24
2018-11-26T03:43:58.310Z,2.18
2018-11-26T03:44:57.627Z,2.31
2018-11-26T03:45:57.809Z,2.29
2018-11-26T03:46:57.717Z,2.26
2018-11-26T03:47:57.631Z,2.29
2018-11-26T03:48:57.835Z,2.31
2018-11-26T03:49:58.055Z,2.28
2018-11-26T03:50:57.654Z,2.32
2018-11-26T03:53:11.290Z,2.32
2018-11-26T03:54:08.731Z,2.28
2018-11-26T03:55:08.935Z,2.29
2018-11-26T03:56:09.219Z,2.32
2018-11-26T03:57:08.771Z,2.32
2018-11-26T03:58:08.650Z,2.26
2018-11-26T03:59:09.176Z,2.18
2018-11-26T04:00:08.777Z,2.22
2018-11-26T04:01:08.676Z,2.28
2018-11-26T04:02:08.493Z,2.18
2018-11-26T04:03:08.465Z,2.13
2018-11-26T04:04:09.311Z,2.00
2018-11-26T04:05:09.229Z,1.91
2018-11-26T04:06:08.438Z,2.02
2018-11-26T04:08:20.344Z,1.92
2018-11-26T04:09:19.633Z,1.92
2018-11-26T04:10:20.314Z,1.97
2018-11-26T04:11:20.021Z,2.02
2018-11-26T04:12:19.563Z,2.00
2018-11-26T04:13:20.307Z,1.97
2018-11-26T04:14:20.316Z,2.13
2018-11-26T04:15:19.637Z,1.99
2018-11-26T04:16:20.170Z,2.14
2018-11-26T04:17:19.762Z,2.18
2018-11-26T04:18:19.668Z,2.17
2018-11-26T04:19:19.487Z,2.20
2018-11-26T04:20:19.475Z,2.26
2018-11-26T04:21:19.993Z,2.29
2018-11-26T04:23:30.363Z,2.28
2018-11-26T04:24:29.835Z,2.35
2018-11-26T04:25:30.317Z,2.33
2018-11-26T04:26:29.983Z,2.38
2018-11-26T04:27:29.876Z,2.42
2018-11-26T04:28:29.768Z,2.51
2018-11-26T04:29:30.282Z,2.44
2018-11-26T04:30:29.884Z,2.50
2018-11-26T04:31:29.785Z,2.38
2018-11-26T04:32:29.708Z,2.38
2018-11-26T04:33:29.602Z,2.47
2018-11-26T04:34:29.819Z,2.50
2018-11-26T04:35:30.337Z,2.54
2018-11-26T04:36:29.642Z,2.61
2018-11-26T04:37:29.838Z,2.60
2018-11-26T04:39:52.345Z,2.67
2018-11-26T04:40:51.670Z,2.68
2018-11-26T04:41:51.880Z,2.83
2018-11-26T04:42:51.630Z,2.83
2018-11-26T04:43:51.687Z,2.90
2018-11-26T04:44:51.574Z,2.83
2018-11-26T04:45:52.151Z,2.90
2018-11-26T04:46:51.719Z,2.85
2018-11-26T04:47:51.542Z,2.83
2018-11-26T04:48:51.835Z,2.92
2018-11-26T04:49:51.744Z,2.85
2018-11-26T04:50:51.544Z,2.86
2018-11-26T04:51:51.868Z,2.89
2018-11-26T04:54:01.363Z,2.87
2018-11-26T04:55:01.085Z,2.90
2018-11-26T04:56:00.988Z,2.86
2018-11-26T04:57:01.221Z,2.86
2018-11-26T04:58:01.121Z,2.92
2018-11-26T04:59:01.009Z,2.89
2018-11-26T05:00:01.357Z,2.92
2018-11-26T05:01:01.139Z,2.92
2018-11-26T05:02:01.045Z,2.89
2018-11-26T05:03:00.947Z,2.92
2018-11-26T05:04:01.163Z,2.92
2018-11-26T05:05:01.063Z,3.03
2018-11-26T05:06:01.273Z,2.95
2018-11-26T05:07:00.883Z,2.97
2018-11-26T05:09:22.405Z,2.90
2018-11-26T05:10:21.774Z,3.04
2018-11-26T05:11:21.987Z,3.00
2018-11-26T05:12:21.935Z,2.97
2018-11-26T05:13:22.391Z,3.00
2018-11-26T05:14:22.028Z,3.14
2018-11-26T05:15:22.223Z,3.05
2018-11-26T05:16:21.821Z,3.04
2018-11-26T05:17:21.740Z,3.01
2018-11-26T05:18:21.942Z,3.05
2018-11-26T05:19:22.158Z,2.95
2018-11-26T05:20:21.776Z,3.04
2018-11-26T05:21:21.654Z,3.11
2018-11-26T05:22:21.868Z,3.10
2018-11-26T05:24:33.042Z,3.04
2018-11-26T05:25:32.949Z,3.03
2018-11-26T05:26:32.856Z,3.10
2018-11-26T05:27:32.754Z,3.11
2018-11-26T05:28:32.627Z,3.10
2018-11-26T05:29:32.873Z,3.08
2018-11-26T05:30:33.093Z,3.13
2018-11-26T05:31:32.594Z,3.11
2018-11-26T05:32:32.590Z,3.11
2018-11-26T05:33:33.397Z,3.08
2018-11-26T05:34:32.716Z,3.10
2018-11-26T05:35:32.567Z,3.18
2018-11-26T05:36:32.830Z,3.18
2018-11-26T05:37:32.727Z,3.11
2018-11-26T05:39:44.434Z,2.97
2018-11-26T05:40:43.197Z,3.03
2018-11-26T05:41:42.792Z,3.03
2018-11-26T05:42:43.014Z,3.00
2018-11-26T05:43:42.916Z,3.04
2018-11-26T05:44:43.414Z,3.01
2018-11-26T05:45:42.733Z,3.07
2018-11-26T05:46:42.948Z,3.07
2018-11-26T05:47:42.840Z,3.11
2018-11-26T05:48:42.744Z,3.13
2018-11-26T05:49:42.650Z,3.14
2018-11-26T05:50:43.169Z,3.14
2018-11-26T05:51:42.809Z,3.11
2018-11-26T05:52:42.674Z,3.08
2018-11-26T05:53:43.201Z,3.05
2018-11-26T05:56:04.452Z,3.03
2018-11-26T05:57:04.101Z,3.03
2018-11-26T05:58:04.013Z,2.97
2018-11-26T05:59:03.908Z,2.95
2018-11-26T06:00:04.124Z,3.03
2018-11-26T06:01:04.332Z,2.90
2018-11-26T06:02:04.419Z,2.98
2018-11-26T06:03:04.148Z,2.92
2018-11-26T06:04:04.055Z,2.95
2018-11-26T06:05:03.979Z,2.92
2018-11-26T06:06:03.863Z,3.05
2018-11-26T06:07:04.079Z,2.93
2018-11-26T06:08:04.433Z,2.97
2018-11-26T06:09:03.889Z,3.00
2018-11-26T06:11:25.482Z,2.98
2018-11-26T06:12:24.794Z,3.00
2018-11-26T06:13:25.309Z,3.00
2018-11-26T06:14:24.912Z,3.07
2018-11-26T06:15:24.855Z,2.93
2018-11-26T06:16:25.027Z,3.01
2018-11-26T06:17:25.244Z,3.04
2018-11-26T06:18:24.836Z,3.04
2018-11-26T06:19:24.751Z,3.13
2018-11-26T06:20:25.051Z,3.08
2018-11-26T06:21:25.209Z,3.13
2018-11-26T06:22:24.767Z,3.13
2018-11-26T06:23:25.298Z,3.10
2018-11-26T06:24:24.907Z,3.14
2018-11-26T06:26:35.502Z,3.28
2018-11-26T06:27:35.053Z,3.13
2018-11-26T06:28:34.954Z,3.21
2018-11-26T06:29:35.246Z,3.18
2018-11-26T06:30:35.382Z,3.23
2018-11-26T06:31:34.977Z,3.21
2018-11-26T06:32:34.891Z,3.14
2018-11-26T06:33:35.396Z,3.10
2018-11-26T06:34:36.260Z,3.14
2018-11-26T06:35:35.215Z,3.13
2018-11-26T06:36:35.478Z,3.14
2018-11-26T06:38:56.450Z,3.18
2018-11-26T06:41:07.470Z,3.19
2018-11-26T06:42:07.466Z,3.10
2018-11-26T06:43:06.797Z,3.21
2018-11-26T06:44:08.612Z,3.16
2018-11-26T06:45:07.463Z,3.18
2018-11-26T06:46:06.829Z,3.11
2018-11-26T06:47:07.341Z,3.13
2018-11-26T06:48:07.476Z,3.19
2018-11-26T06:49:06.846Z,3.25
2018-11-26T06:50:06.654Z,3.28
2018-11-26T06:51:06.655Z,3.26
2018-11-26T06:52:06.876Z,3.18
2018-11-26T06:53:07.711Z,3.31
2018-11-26T06:54:06.728Z,3.28
2018-11-26T06:56:19.498Z,3.18
2018-11-26T06:57:20.235Z,3.23
2018-11-26T06:58:19.520Z,3.21
2018-11-26T06:59:19.414Z,3.22
2018-11-26T07:00:19.323Z,3.34
2018-11-26T07:01:19.226Z,3.18
2018-11-26T07:02:19.145Z,3.31
2018-11-26T07:03:19.335Z,3.28
2018-11-26T07:04:19.491Z,3.29
2018-11-26T07:05:19.149Z,3.34
2018-11-26T07:06:19.384Z,3.34
2018-11-26T07:07:19.282Z,3.34
2018-11-26T07:08:19.174Z,3.34
2018-11-26T07:09:19.391Z,3.34
2018-11-26T07:10:19.533Z,3.36
2018-11-26T07:12:30.507Z,3.48
2018-11-26T07:13:29.136Z,3.44
2018-11-26T07:14:29.056Z,3.42
2018-11-26T07:15:28.948Z,3.44
2018-11-26T07:16:29.165Z,3.48
2018-11-26T07:17:29.058Z,3.45
2018-11-26T07:18:29.525Z,3.47
2018-11-26T07:19:28.880Z,3.47
2018-11-26T07:20:28.776Z,3.48
2018-11-26T07:21:28.993Z,3.51
2018-11-26T07:22:32.509Z,3.44
2018-11-26T07:23:32.186Z,3.37
2018-11-26T07:24:31.664Z,3.45
2018-11-26T07:25:31.634Z,3.34
2018-11-26T07:27:43.520Z,3.45
2018-11-26T07:28:42.457Z,3.44
2018-11-26T07:29:42.552Z,3.34
2018-11-26T07:30:42.516Z,3.31
2018-11-26T07:31:42.480Z,3.31
2018-11-26T07:32:42.552Z,3.31
2018-11-26T07:33:42.520Z,3.31
2018-11-26T07:34:42.533Z,3.26
2018-11-26T07:35:42.518Z,3.26
2018-11-26T07:36:42.317Z,3.23
2018-11-26T07:37:42.528Z,3.14
2018-11-26T07:38:42.526Z,3.11
2018-11-26T07:39:42.339Z,3.10
2018-11-26T07:40:42.525Z,3.16
2018-11-26T07:42:52.577Z,3.19
2018-11-26T07:43:52.527Z,3.21
2018-11-26T07:44:52.542Z,3.21
2018-11-26T07:45:52.514Z,3.26
2018-11-26T07:46:52.416Z,3.29
2018-11-26T07:47:52.555Z,3.26
2018-11-26T07:48:52.884Z,3.32
2018-11-26T07:49:52.441Z,3.48
2018-11-26T07:50:52.359Z,3.42
2018-11-26T07:51:52.539Z,3.41
2018-11-26T07:52:52.472Z,3.42
2018-11-26T07:53:52.391Z,3.53
2018-11-26T07:54:52.900Z,3.44
2018-11-26T07:55:52.501Z,3.50
2018-11-26T07:58:06.449Z,3.58
2018-11-26T07:59:05.533Z,3.62
2018-11-26T08:00:05.549Z,3.59
2018-11-26T08:01:05.557Z,3.60
2018-11-26T08:02:05.442Z,3.70
2018-11-26T08:03:05.346Z,3.74
2018-11-26T08:04:05.897Z,3.74
2018-11-26T08:05:05.471Z,3.74
2018-11-26T08:06:08.877Z,3.81
2018-11-26T08:07:05.576Z,3.77
2018-11-26T08:08:05.502Z,3.86
2018-11-26T08:09:05.402Z,3.87
2018-11-26T08:10:05.601Z,3.77
2018-11-26T08:11:05.523Z,3.83
2018-11-26T08:13:16.558Z,3.91
2018-11-26T08:14:15.975Z,3.80
2018-11-26T08:15:15.874Z,3.80
2018-11-26T08:16:15.701Z,3.86
2018-11-26T08:17:15.683Z,3.68
2018-11-26T08:18:15.906Z,3.74
2018-11-26T08:19:15.677Z,3.76
2018-11-26T08:20:15.713Z,3.76
2018-11-26T08:21:16.238Z,3.74
2018-11-26T08:22:16.131Z,3.77
2018-11-26T08:23:15.651Z,3.76
2018-11-26T08:24:15.970Z,3.74
2018-11-26T08:25:15.670Z,3.68
2018-11-26T08:26:15.578Z,3.76
2018-11-26T08:28:39.652Z,3.66
2018-11-26T08:29:38.614Z,3.76
2018-11-26T08:30:38.588Z,3.74
2018-11-26T08:31:38.569Z,3.68
2018-11-26T08:32:38.574Z,3.73
2018-11-26T08:33:38.580Z,3.77
2018-11-26T08:34:38.581Z,3.77
2018-11-26T08:35:38.552Z,3.81
2018-11-26T08:36:38.455Z,3.88
2018-11-26T08:37:38.584Z,3.76
2018-11-26T08:38:38.608Z,3.83
2018-11-26T08:39:38.392Z,3.77
2018-11-26T08:40:38.607Z,3.84
2018-11-26T08:41:38.627Z,3.81
2018-11-26T08:43:50.625Z,3.78
2018-11-26T08:44:50.594Z,3.77
2018-11-26T08:45:50.501Z,3.74
2018-11-26T08:46:50.748Z,3.76
2018-11-26T08:47:50.593Z,3.76
2018-11-26T08:48:50.526Z,3.83
2018-11-26T08:49:50.631Z,3.81
2018-11-26T08:50:50.340Z,3.87
2018-11-26T08:51:50.591Z,3.88
2018-11-26T08:52:50.447Z,3.95
2018-11-26T08:53:50.360Z,4.04
2018-11-26T08:54:50.609Z,4.10
2018-11-26T08:55:50.540Z,3.96
2018-11-26T08:56:50.376Z,3.98
2018-11-26T08:59:01.274Z,3.95
2018-11-26T09:00:00.640Z,3.99
2018-11-26T09:01:00.619Z,4.04
2018-11-26T09:02:00.631Z,4.13
2018-11-26T09:03:00.563Z,4.06
2018-11-26T09:04:00.479Z,3.98
2018-11-26T09:05:00.642Z,4.12
2018-11-26T09:06:00.592Z,4.13
2018-11-26T09:07:00.630Z,4.23
2018-11-26T09:08:00.650Z,4.19
2018-11-26T09:09:00.625Z,4.32
2018-11-26T09:10:00.523Z,4.28
2018-11-26T09:11:00.433Z,4.16
2018-11-26T09:12:00.648Z,4.14
2018-11-26T09:14:10.678Z,4.04
2018-11-26T09:15:10.615Z,3.96
2018-11-26T09:16:10.646Z,3.88
2018-11-26T09:17:10.594Z,3.95
2018-11-26T09:18:10.501Z,3.92
2018-11-26T09:19:10.623Z,4.13
2018-11-26T09:20:10.665Z,4.10
2018-11-26T09:21:10.530Z,4.20
2018-11-26T09:22:10.652Z,4.28
2018-11-26T09:23:10.635Z,4.32
2018-11-26T09:24:10.624Z,4.42
2018-11-26T09:25:10.449Z,4.34
2018-11-26T09:26:10.975Z,4.42
2018-11-26T09:27:10.577Z,4.24
2018-11-26T09:29:21.650Z,4.26
2018-11-26T09:30:21.647Z,4.23
2018-11-26T09:31:21.554Z,4.26
2018-11-26T09:32:21.634Z,4.28
2018-11-26T09:33:21.638Z,4.20
2018-11-26T09:34:21.275Z,4.19
2018-11-26T09:35:21.489Z,4.20
2018-11-26T09:36:21.388Z,4.28
2018-11-26T09:37:21.627Z,4.23
2018-11-26T09:38:21.521Z,4.14
2018-11-26T09:39:21.110Z,4.26
2018-11-26T09:40:21.030Z,4.22
2018-11-26T09:41:21.541Z,4.30
2018-11-26T09:42:21.431Z,4.24
2018-11-26T09:44:42.706Z,4.28
2018-11-26T09:45:42.649Z,4.17
2018-11-26T09:46:42.565Z,4.19
2018-11-26T09:47:42.657Z,4.16
2018-11-26T09:48:42.654Z,4.31
2018-11-26T09:49:42.582Z,4.34
2018-11-26T09:50:42.693Z,4.38
2018-11-26T09:51:42.666Z,4.49
2018-11-26T09:52:42.670Z,4.58
2018-11-26T09:53:42.507Z,4.62
2018-11-26T09:54:42.668Z,4.49
2018-11-26T09:55:42.624Z,4.48
2018-11-26T09:56:42.684Z,4.53
2018-11-26T09:57:42.445Z,4.56
2018-11-26T09:59:54.010Z,4.60
2018-11-26T10:00:52.607Z,4.59
2018-11-26T10:01:52.512Z,4.58
2018-11-26T10:02:52.683Z,4.62
2018-11-26T10:03:52.612Z,4.75
2018-11-26T10:04:52.670Z,4.80
2018-11-26T10:05:52.706Z,4.70
2018-11-26T10:06:52.638Z,4.68
2018-11-26T10:07:52.677Z,4.55
2018-11-26T10:08:52.460Z,4.62
2018-11-26T10:09:52.676Z,4.58
2018-11-26T10:10:52.583Z,4.70
2018-11-26T10:11:52.708Z,4.70
2018-11-26T10:12:52.689Z,4.63
2018-11-26T10:15:02.742Z,4.71
2018-11-26T10:16:02.691Z,4.67
2018-11-26T10:17:02.719Z,4.70
2018-11-26T10:18:02.645Z,4.62
2018-11-26T10:19:02.704Z,4.60
2018-11-26T10:20:02.695Z,4.50
2018-11-26T10:21:02.709Z,4.63
2018-11-26T10:22:02.881Z,4.78
2018-11-26T10:23:02.693Z,4.75
2018-11-26T10:24:03.011Z,4.68
2018-11-26T10:25:06.062Z,4.62
2018-11-26T10:26:02.525Z,4.63
2018-11-26T10:27:03.026Z,4.74
2018-11-26T10:28:02.642Z,4.74
2018-11-26T10:30:13.497Z,4.66
2018-11-26T10:31:13.100Z,4.77
2018-11-26T10:32:12.825Z,4.75
2018-11-26T10:33:14.959Z,4.73
2018-11-26T10:34:13.121Z,4.74
2018-11-26T10:35:13.637Z,4.77
2018-11-26T10:36:12.866Z,4.82
2018-11-26T10:37:12.837Z,4.82
2018-11-26T10:38:13.038Z,4.77
2018-11-26T10:39:12.853Z,4.71
2018-11-26T10:40:12.752Z,4.82
2018-11-26T10:41:12.721Z,4.78
2018-11-26T10:42:12.710Z,4.87
2018-11-26T10:43:12.776Z,4.77
2018-11-26T10:45:24.356Z,4.59
2018-11-26T10:46:23.638Z,4.58
2018-11-26T10:47:23.718Z,4.68
2018-11-26T10:48:24.074Z,4.58
2018-11-26T10:49:23.719Z,4.58
2018-11-26T10:50:23.745Z,4.68
2018-11-26T10:51:23.723Z,4.66
2018-11-26T10:52:23.733Z,4.73
2018-11-26T10:53:23.637Z,4.75
2018-11-26T10:54:23.810Z,4.74
2018-11-26T10:55:23.706Z,4.84
2018-11-26T10:56:23.777Z,4.92
2018-11-26T10:57:23.516Z,5.00
2018-11-26T10:58:23.741Z,4.94
2018-11-26T10:59:23.644Z,4.96
2018-11-26T11:01:34.513Z,4.96
2018-11-26T11:02:34.113Z,4.99
2018-11-26T11:03:33.834Z,5.08
2018-11-26T11:04:33.819Z,5.07
2018-11-26T11:05:33.824Z,5.05
2018-11-26T11:06:33.797Z,5.18
2018-11-26T11:07:33.896Z,5.08
2018-11-26T11:08:33.808Z,5.04
2018-11-26T11:09:34.063Z,5.02
2018-11-26T11:10:33.794Z,4.97
2018-11-26T11:11:34.481Z,4.96
2018-11-26T11:12:33.735Z,5.00
2018-11-26T11:13:33.838Z,4.96
2018-11-26T11:14:33.757Z,4.90
2018-11-26T11:16:47.796Z,4.90
2018-11-26T11:17:47.121Z,5.00
2018-11-26T11:18:47.033Z,5.11
2018-11-26T11:19:47.245Z,5.07
2018-11-26T11:20:47.145Z,5.10
2018-11-26T11:21:47.056Z,5.14
2018-11-26T11:22:47.776Z,5.17
2018-11-26T11:23:47.158Z,5.18
2018-11-26T11:24:47.104Z,5.05
2018-11-26T11:25:46.874Z,5.14
2018-11-26T11:26:46.874Z,5.17
2018-11-26T11:27:47.094Z,5.15
2018-11-26T11:28:46.954Z,5.10
2018-11-26T11:30:57.776Z,4.94
2018-11-26T11:31:57.777Z,4.87
2018-11-26T11:32:57.360Z,4.97
2018-11-26T11:33:57.605Z,4.97
2018-11-26T11:34:57.192Z,4.82
2018-11-26T11:35:57.705Z,4.80
2018-11-26T11:36:57.615Z,4.78
2018-11-26T11:37:57.203Z,4.84
2018-11-26T11:38:57.413Z,4.89
2018-11-26T11:39:58.063Z,4.99
2018-11-26T11:40:58.154Z,4.78
2018-11-26T11:41:57.140Z,4.80
2018-11-26T11:42:57.659Z,4.77
2018-11-26T11:43:57.254Z,4.74
2018-11-26T11:44:57.173Z,4.74
2018-11-26T11:47:40.888Z,4.84
2018-11-26T11:48:40.772Z,4.84
2018-11-26T11:49:40.813Z,4.82
2018-11-26T11:50:40.782Z,4.90
2018-11-26T11:51:41.131Z,4.84
2018-11-26T11:52:40.721Z,4.87
2018-11-26T11:53:40.635Z,4.93
2018-11-26T11:54:40.786Z,4.96
2018-11-26T11:55:40.749Z,4.89
2018-11-26T11:56:40.651Z,4.89
2018-11-26T11:57:40.853Z,4.86
2018-11-26T11:58:40.774Z,4.87
2018-11-26T11:59:40.672Z,4.90
2018-11-26T12:01:51.851Z,4.84
2018-11-26T12:02:51.795Z,4.82
2018-11-26T12:03:51.351Z,4.73
2018-11-26T12:04:51.248Z,4.62
2018-11-26T12:05:51.157Z,4.71
2018-11-26T12:06:51.810Z,4.70
2018-11-26T12:07:51.795Z,4.66
2018-11-26T12:08:51.823Z,4.71
2018-11-26T12:09:51.391Z,4.70
2018-11-26T12:10:51.625Z,4.67
2018-11-26T12:11:51.233Z,4.73
2018-11-26T12:12:51.109Z,4.71
2018-11-26T12:13:51.797Z,4.75
2018-11-26T12:14:51.224Z,4.74
2018-11-26T12:17:15.859Z,4.77
2018-11-26T12:18:15.514Z,4.67
2018-11-26T12:19:15.111Z,4.75
2018-11-26T12:20:14.938Z,4.68
2018-11-26T12:21:15.802Z,4.62
2018-11-26T12:22:15.140Z,4.52
2018-11-26T12:23:14.901Z,4.55
2018-11-26T12:24:16.177Z,4.73
2018-11-26T12:25:15.774Z,4.74
2018-11-26T12:26:14.869Z,4.60
2018-11-26T12:27:14.866Z,4.70
2018-11-26T12:28:14.841Z,4.80
2018-11-26T12:29:14.837Z,4.70
2018-11-26T12:30:14.932Z,4.73
2018-11-26T12:32:26.868Z,4.77
2018-11-26T12:33:25.764Z,4.93
2018-11-26T12:34:25.818Z,4.86
2018-11-26T12:35:25.817Z,4.87
2018-11-26T12:36:25.818Z,4.87
2018-11-26T12:37:25.690Z,4.84
2018-11-26T12:38:26.209Z,4.87
2018-11-26T12:39:26.423Z,4.90
2018-11-26T12:40:25.710Z,4.82
2018-11-26T12:41:25.827Z,4.93
2018-11-26T12:42:25.840Z,4.86
2018-11-26T12:43:25.730Z,4.89
2018-11-26T12:44:25.891Z,4.89
2018-11-26T12:45:25.843Z,4.87
2018-11-26T12:47:35.853Z,4.86
2018-11-26T12:48:35.709Z,4.90
2018-11-26T12:49:35.834Z,4.90
2018-11-26T12:50:35.892Z,4.92
2018-11-26T12:51:35.865Z,4.87
2018-11-26T12:52:35.842Z,4.84
2018-11-26T12:53:35.871Z,4.82
2018-11-26T12:54:35.746Z,4.87
2018-11-26T12:55:35.852Z,4.86
2018-11-26T12:56:35.843Z,4.84
2018-11-26T12:57:35.852Z,4.86
2018-11-26T12:58:35.899Z,4.92
2018-11-26T12:59:35.620Z,4.96
2018-11-26T13:00:35.859Z,5.05
2018-11-26T13:02:48.849Z,4.93
2018-11-26T13:03:48.854Z,4.99
2018-11-26T13:04:48.649Z,4.94
2018-11-26T13:05:48.543Z,4.87
2018-11-26T13:06:48.871Z,4.78
2018-11-26T13:07:48.863Z,4.71
2018-11-26T13:08:48.550Z,4.70
2018-11-26T13:09:48.869Z,4.77
2018-11-26T13:10:48.682Z,4.78
2018-11-26T13:11:48.608Z,4.70
2018-11-26T13:12:48.486Z,4.71
2018-11-26T13:13:48.392Z,4.73
2018-11-26T13:14:48.596Z,4.80
2018-11-26T13:15:48.844Z,4.70
2018-11-26T13:18:11.917Z,4.77
2018-11-26T13:19:11.561Z,4.71
2018-11-26T13:20:11.461Z,4.75
2018-11-26T13:21:11.875Z,4.59
2018-11-26T13:22:11.286Z,4.75
2018-11-26T13:23:11.513Z,4.59
2018-11-26T13:24:11.394Z,4.68
2018-11-26T13:25:11.307Z,4.59
2018-11-26T13:26:11.924Z,4.59
2018-11-26T13:27:11.433Z,4.60
2018-11-26T13:28:11.691Z,4.73
2018-11-26T13:29:11.848Z,4.63
2018-11-26T13:30:11.457Z,4.55
2018-11-26T13:31:11.352Z,4.56
2018-11-26T13:33:34.810Z,4.59
2018-11-26T13:34:34.783Z,4.58
2018-11-26T13:35:34.615Z,4.56
2018-11-26T13:36:34.521Z,4.58
2018-11-26T13:37:34.887Z,4.59
2018-11-26T13:38:34.641Z,4.55
2018-11-26T13:39:34.543Z,4.60
2018-11-26T13:40:34.897Z,4.50
2018-11-26T13:41:34.668Z,4.49
2018-11-26T13:42:34.597Z,4.38
2018-11-26T13:43:34.790Z,4.48
2018-11-26T13:44:34.376Z,4.48
2018-11-26T13:45:34.606Z,4.48
2018-11-26T13:46:34.806Z,4.45
2018-11-26T13:48:47.944Z,4.48
2018-11-26T13:49:47.744Z,4.45
2018-11-26T13:50:48.896Z,4.50
2018-11-26T13:51:48.149Z,4.52
2018-11-26T13:52:47.745Z,4.44
2018-11-26T13:53:47.654Z,4.32
2018-11-26T13:54:47.965Z,4.34
2018-11-26T13:55:47.790Z,4.41
2018-11-26T13:56:48.292Z,4.42
2018-11-26T13:57:47.888Z,4.42
2018-11-26T13:58:47.806Z,4.24
2018-11-26T13:59:47.913Z,4.31
2018-11-26T14:00:48.223Z,4.31
2018-11-26T14:01:47.827Z,4.20
2018-11-26T14:04:10.913Z,4.22
2018-11-26T14:05:10.578Z,4.30
2018-11-26T14:06:10.816Z,4.30
2018-11-26T14:07:10.378Z,4.23
2018-11-26T14:08:10.290Z,4.24
2018-11-26T14:09:10.498Z,4.26
2018-11-26T14:10:10.403Z,4.28
2018-11-26T14:11:10.614Z,4.13
2018-11-26T14:12:10.211Z,4.14
2018-11-26T14:13:10.419Z,4.19
2018-11-26T14:14:10.939Z,4.24
2018-11-26T14:15:10.235Z,4.23
2018-11-26T14:16:10.446Z,4.12
2018-11-26T14:17:11.289Z,4.13
2018-11-26T14:19:22.930Z,4.28
2018-11-26T14:20:22.364Z,4.14
2018-11-26T14:21:22.872Z,4.14
2018-11-26T14:22:22.083Z,4.22
2018-11-26T14:23:22.072Z,4.20
2018-11-26T14:24:22.297Z,4.13
2018-11-26T14:25:22.130Z,4.22
2018-11-26T14:26:22.065Z,4.19
2018-11-26T14:27:22.313Z,4.22
2018-11-26T14:28:22.126Z,4.22
2018-11-26T14:29:22.011Z,4.26
2018-11-26T14:30:22.333Z,4.19